Time;durP1;ratioP1;P1;durP2;ratioP2;P2;SDS_P1;SDS_P2;PMS_P1;PMS_P2;Temp;Humidity;BMP_temperature;BMP_pressure;BME280_temperature;BME280_humidity;BME280_pressure;Samples;Min_cycle;Max_cycle;Signal;HPM_P1;HPM_P2
2023/05/14 05:21:33;;;;;;;17.13;10.10;;;;;;;9.02;99.90;96536.75;2089334;28;20553;-56
2023/05/14 07:10:13;;;;;;;12.25;8.27;;;;;;;11.89;84.68;96533.28;2100290;27;20564;-56
2023/05/14 07:12:21;;;;;;;14.55;8.80;;;;;;;12.02;83.78;96530.06;2099993;27;20564;-57
2023/05/14 07:14:34;;;;;;;18.42;9.05;;;;;;;11.56;85.50;96528.00;2089042;28;20574;-57
2023/05/14 07:15:36;;;;;;;14.30;9.45;;;;;;;11.53;83.74;96534.22;2085549;28;20234;-56
2023/05/14 07:17:41;;;;;;;19.45;8.50;;;;;;;11.75;84.47;96520.91;2091365;28;20577;-57
2023/05/14 07:18:44;;;;;;;13.18;8.57;;;;;;;11.84;84.45;96530.03;2094022;28;20865;-57
2023/05/14 07:19:46;;;;;;;13.25;9.48;;;;;;;11.96;84.26;96527.75;2092510;28;20353;-57
2023/05/14 07:20:47;;;;;;;12.60;8.68;;;;;;;11.84;84.70;96529.22;2088908;28;20224;-57
2023/05/14 07:21:49;;;;;;;12.02;8.70;;;;;;;12.05;84.58;96527.28;2082133;28;20676;-58
2023/05/14 07:22:51;;;;;;;14.70;9.13;;;;;;;12.30;83.15;96536.44;2074035;28;20193;-57
2023/05/14 07:23:53;;;;;;;13.93;8.70;;;;;;;12.35;81.86;96529.19;2073216;28;20205;-57
2023/05/14 07:24:54;;;;;;;22.27;8.93;;;;;;;12.55;81.75;96531.56;2074220;28;20658;-57
2023/05/14 07:25:55;;;;;;;15.32;9.38;;;;;;;12.70;81.44;96531.69;2071288;28;20201;-57
2023/05/14 07:28:03;;;;;;;13.02;8.90;;;;;;;12.44;80.75;96522.63;2101089;27;20561;-57
2023/05/14 07:29:05;;;;;;;12.25;8.63;;;;;;;12.29;81.38;96522.53;2102602;28;20196;-57
2023/05/14 07:30:07;;;;;;;14.40;10.13;;;;;;;12.03;82.71;96518.66;2100569;28;20198;-57
2023/05/14 07:31:09;;;;;;;15.00;8.90;;;;;;;11.87;83.90;96514.22;2098315;28;20207;-57
2023/05/14 07:32:10;;;;;;;12.60;8.65;;;;;;;12.30;83.22;96521.56;2081446;28;20220;-58
2023/05/14 07:33:15;;;;;;;15.82;9.18;;;;;;;12.50;82.45;96522.28;2080185;28;20531;-57
2023/05/14 07:34:18;;;;;;;15.63;8.55;;;;;;;12.70;82.16;96514.19;2080785;28;20640;-57
2023/05/14 07:35:19;;;;;;;15.88;8.73;;;;;;;12.64;80.94;96518.91;2078577;28;20197;-57
2023/05/14 07:36:21;;;;;;;13.52;8.70;;;;;;;12.62;80.57;96513.78;2079364;28;20201;-57
2023/05/14 07:37:24;;;;;;;11.30;7.60;;;;;;;12.78;79.01;96513.75;2090599;28;20289;-57
2023/05/14 07:38:26;;;;;;;15.45;9.52;;;;;;;12.58;80.92;96520.09;2090762;28;20745;-57
2023/05/14 07:39:27;;;;;;;12.48;9.30;;;;;;;12.70;80.48;96515.97;2090515;28;20639;-57
2023/05/14 07:40:29;;;;;;;11.88;8.40;;;;;;;12.92;80.63;96517.38;2092458;28;20204;-56
2023/05/14 07:41:30;;;;;;;13.50;9.48;;;;;;;13.09;80.17;96519.91;2089568;28;20222;-56
2023/05/14 07:42:31;;;;;;;14.10;8.80;;;;;;;12.55;80.31;96509.78;2086635;28;20200;-56
2023/05/14 07:43:39;;;;;;;12.50;8.70;;;;;;;12.63;80.73;96509.38;2090697;28;20200;-56
2023/05/14 07:44:40;;;;;;;15.93;8.07;;;;;;;13.02;79.98;96519.38;2088680;28;20610;-56
2023/05/14 07:45:42;;;;;;;11.15;8.25;;;;;;;13.27;79.63;96515.38;2089138;28;20201;-56
2023/05/14 07:46:43;;;;;;;13.52;8.45;;;;;;;13.29;79.50;96510.88;2090803;28;20223;-56
2023/05/14 07:47:45;;;;;;;13.63;8.13;;;;;;;13.44;79.21;96509.19;2090151;28;20551;-56
2023/05/14 07:48:47;;;;;;;13.85;8.90;;;;;;;13.62;78.39;96511.66;2089368;28;20192;-56
2023/05/14 07:49:48;;;;;;;11.85;8.00;;;;;;;13.69;78.34;96513.84;2089230;28;20197;-56
2023/05/14 07:50:50;;;;;;;13.10;7.90;;;;;;;13.50;77.70;96516.69;2088782;28;20200;-56
2023/05/14 07:51:51;;;;;;;11.80;8.35;;;;;;;13.61;78.01;96513.47;2089852;28;20247;-56
2023/05/14 07:52:53;;;;;;;10.90;8.65;;;;;;;13.28;78.09;96518.84;2087293;28;20188;-57
2023/05/14 07:53:55;;;;;;;13.55;8.30;;;;;;;13.05;79.30;96513.13;2089830;28;20669;-57
2023/05/14 07:54:56;;;;;;;19.08;8.15;;;;;;;13.07;80.02;96508.66;2090364;28;20284;-58
2023/05/14 07:55:58;;;;;;;65.88;41.00;;;;;;;13.17;80.54;96511.59;2090333;28;20224;-57
2023/05/14 07:57:00;;;;;;;146.40;86.55;;;;;;;13.39;79.40;96512.09;2090778;28;20573;-58
2023/05/14 07:58:01;;;;;;;84.22;51.00;;;;;;;13.62;78.83;96515.13;2088918;28;20205;-57
2023/05/14 07:59:03;;;;;;;29.02;19.42;;;;;;;13.60;77.23;96508.28;2091538;28;20203;-57
2023/05/14 08:00:09;;;;;;;19.88;9.93;;;;;;;13.25;78.43;96517.25;2089109;28;20195;-57
2023/05/14 08:01:11;;;;;;;16.55;10.00;;;;;;;13.36;78.68;96504.34;2090005;28;20648;-58
2023/05/14 08:02:14;;;;;;;12.20;9.05;;;;;;;13.58;78.57;96520.66;2088636;28;20603;-57
2023/05/14 08:03:16;;;;;;;13.40;7.90;;;;;;;13.65;78.46;96511.47;2086540;28;20656;-57
2023/05/14 08:04:18;;;;;;;11.95;8.23;;;;;;;13.70;77.31;96515.53;2087436;28;20243;-57
2023/05/14 08:05:19;;;;;;;11.63;8.40;;;;;;;13.42;77.62;96511.06;2090498;28;20192;-57
2023/05/14 08:06:22;;;;;;;14.85;8.85;;;;;;;13.55;78.22;96512.03;2091719;28;20227;-57
2023/05/14 08:07:24;;;;;;;12.68;7.80;;;;;;;13.73;77.36;96511.88;2089377;28;20256;-57
2023/05/14 08:08:26;;;;;;;10.10;7.35;;;;;;;13.74;77.00;96503.06;2086438;28;20254;-57
2023/05/14 08:09:27;;;;;;;13.90;8.80;;;;;;;13.80;76.72;96510.59;2087006;28;20211;-57
2023/05/14 08:10:30;;;;;;;11.60;8.68;;;;;;;13.92;77.29;96510.78;2086502;28;20235;-57
2023/05/14 08:11:31;;;;;;;12.40;8.10;;;;;;;13.91;77.23;96511.72;2087151;28;20210;-57
2023/05/14 08:12:33;;;;;;;11.40;8.45;;;;;;;13.93;76.85;96515.94;2089924;28;20211;-57
2023/05/14 08:13:34;;;;;;;11.23;8.77;;;;;;;14.01;76.40;96510.22;2089480;28;20651;-57
2023/05/14 08:14:35;;;;;;;16.90;9.70;;;;;;;13.93;76.91;96508.06;2090215;28;20236;-58
2023/05/14 08:15:37;;;;;;;16.08;9.35;;;;;;;13.96;76.54;96515.75;2090276;28;20549;-57
2023/05/14 08:16:39;;;;;;;11.45;7.57;;;;;;;14.02;76.41;96517.16;2088918;28;20196;-57
2023/05/14 08:17:40;;;;;;;15.43;9.50;;;;;;;14.11;76.58;96505.25;2088081;28;20200;-57
2023/05/14 08:18:41;;;;;;;14.02;7.90;;;;;;;14.26;77.19;96509.56;2089682;28;20287;-57
2023/05/14 08:19:43;;;;;;;11.95;7.90;;;;;;;14.36;76.43;96507.22;2088852;28;20239;-57
2023/05/14 08:20:44;;;;;;;13.07;9.23;;;;;;;14.36;75.53;96512.47;2088156;28;20575;-57
2023/05/14 08:21:46;;;;;;;9.43;7.18;;;;;;;14.42;74.93;96506.81;2089801;28;20216;-57
2023/05/14 08:22:47;;;;;;;11.20;7.68;;;;;;;14.49;74.63;96513.38;2089014;28;20200;-57
2023/05/14 08:23:49;;;;;;;13.00;8.27;;;;;;;14.39;74.95;96503.56;2089170;28;20201;-57
2023/05/14 08:24:50;;;;;;;13.50;9.25;;;;;;;14.50;74.15;96508.97;2086207;28;20810;-57
2023/05/14 08:25:51;;;;;;;10.85;7.60;;;;;;;14.42;73.94;96508.59;2088329;28;20215;-57
2023/05/14 08:26:53;;;;;;;11.65;8.25;;;;;;;13.77;75.22;96513.38;2090845;28;20226;-58
2023/05/14 08:27:55;;;;;;;11.57;7.55;;;;;;;13.69;76.79;96513.00;2089534;28;20239;-58
2023/05/14 08:28:57;;;;;;;15.75;8.13;;;;;;;13.83;75.97;96510.38;2090974;28;20386;-58
2023/05/14 08:29:58;;;;;;;15.00;8.10;;;;;;;13.31;77.70;96508.19;2089942;28;20196;-58
2023/05/14 08:30:59;;;;;;;12.88;8.98;;;;;;;13.24;78.11;96499.81;2089036;28;20208;-58
2023/05/14 08:32:01;;;;;;;15.00;9.23;;;;;;;13.57;77.29;96500.59;2090069;28;20709;-58
2023/05/14 08:33:12;;;;;;;13.48;8.07;;;;;;;13.85;76.18;96503.28;2089423;28;20200;-58
2023/05/14 08:34:13;;;;;;;11.65;8.60;;;;;;;13.86;77.10;96496.22;2088078;28;20197;-58
2023/05/14 08:35:16;;;;;;;12.20;8.27;;;;;;;14.21;76.41;96503.75;2090267;28;20223;-58
2023/05/14 08:36:17;;;;;;;11.80;8.07;;;;;;;14.41;75.89;96505.16;2089448;28;20218;-58
2023/05/14 08:37:19;;;;;;;13.63;8.82;;;;;;;14.62;74.29;96502.94;2089365;28;20264;-58
2023/05/14 08:38:20;;;;;;;16.23;9.45;;;;;;;14.15;74.98;96504.13;2088133;28;20200;-58
2023/05/14 08:39:22;;;;;;;10.60;7.93;;;;;;;14.38;75.39;96505.31;2083921;28;20197;-58
2023/05/14 08:40:23;;;;;;;15.55;9.10;;;;;;;14.64;74.76;96500.22;2085518;28;20226;-58
2023/05/14 08:41:25;;;;;;;15.60;8.60;;;;;;;14.89;74.29;96502.16;2079917;28;20271;-58
2023/05/14 08:42:27;;;;;;;13.73;8.65;;;;;;;14.84;74.04;96505.09;2083402;28;20196;-58
2023/05/14 08:43:42;;;;;;;12.98;8.55;;;;;;;15.02;73.73;96505.69;2082937;28;20188;-58
2023/05/14 08:44:51;;;;;;;13.30;8.77;;;;;;;15.09;74.17;96497.41;2084152;28;20284;-58
2023/05/14 08:45:57;;;;;;;11.75;8.10;;;;;;;15.80;72.62;96493.53;2084896;28;20207;-58
2023/05/14 08:46:59;;;;;;;11.18;7.65;;;;;;;16.37;70.09;96496.69;2082532;28;20225;-58
2023/05/14 08:48:04;;;;;;;13.57;8.85;;;;;;;16.97;68.60;96495.06;2082209;28;20308;-58
2023/05/14 08:49:29;;;;;;;10.90;7.75;;;;;;;16.89;66.79;96501.84;2084447;28;20197;-58
2023/05/14 08:50:31;;;;;;;16.73;8.82;;;;;;;16.72;67.92;96496.00;2083828;28;20196;-58
2023/05/14 08:51:32;;;;;;;9.50;7.57;;;;;;;17.04;67.38;96489.34;2080230;28;20208;-59
2023/05/14 08:52:34;;;;;;;17.00;9.40;;;;;;;17.36;66.25;96489.63;2081595;28;20196;-57
2023/05/14 08:53:37;;;;;;;12.20;7.90;;;;;;;17.42;65.50;96483.88;2083315;28;20300;-58
2023/05/14 08:54:41;;;;;;;12.00;8.38;;;;;;;17.60;65.15;96486.09;2083487;28;20228;-57
2023/05/14 08:55:44;;;;;;;10.40;7.93;;;;;;;17.81;65.57;96488.88;2083554;28;20196;-59
2023/05/14 08:56:46;;;;;;;37.20;24.52;;;;;;;18.09;64.62;96490.28;2083169;28;20718;-58
2023/05/14 08:57:49;;;;;;;187.45;109.13;;;;;;;18.41;63.19;96488.72;2083321;28;20204;-58
2023/05/14 08:58:50;;;;;;;14.15;10.18;;;;;;;18.59;61.52;96476.69;2083650;28;20316;-58
2023/05/14 08:59:52;;;;;;;27.15;18.65;;;;;;;18.86;61.46;96487.81;2082643;28;20193;-57
2023/05/14 09:00:55;;;;;;;13.32;8.13;;;;;;;18.54;61.89;96497.38;2085312;28;20208;-57
2023/05/14 09:02:00;;;;;;;10.68;8.15;;;;;;;18.72;62.63;96486.28;2082530;28;20247;-57
2023/05/14 09:03:04;;;;;;;14.32;8.32;;;;;;;18.58;62.95;96484.75;2082382;28;20596;-57
2023/05/14 09:04:07;;;;;;;10.38;7.68;;;;;;;18.51;62.95;96487.03;2083925;28;21079;-57
2023/05/14 09:05:09;;;;;;;10.70;7.75;;;;;;;17.87;63.14;96480.50;2100238;28;20218;-57
2023/05/14 09:06:12;;;;;;;13.77;8.43;;;;;;;18.20;63.02;96497.38;2099946;28;20638;-58
2023/05/14 09:07:14;;;;;;;11.82;8.00;;;;;;;18.52;63.34;96491.34;2082361;28;20706;-58
2023/05/14 09:08:16;;;;;;;10.02;7.63;;;;;;;18.91;63.00;96485.69;2080331;28;20251;-57
2023/05/14 09:09:21;;;;;;;11.25;8.25;;;;;;;19.15;62.15;96490.78;2080861;28;20228;-57
2023/05/14 09:10:22;;;;;;;12.00;6.93;;;;;;;19.35;61.10;96475.91;2083738;28;20196;-57
2023/05/14 09:11:24;;;;;;;12.98;8.80;;;;;;;18.11;60.81;96483.06;2083178;28;20672;-57
2023/05/14 09:12:25;;;;;;;10.52;7.70;;;;;;;17.21;64.05;96483.66;2082186;28;20475;-57
2023/05/14 09:13:27;;;;;;;8.38;6.78;;;;;;;17.66;64.66;96475.06;2083566;28;20679;-57
2023/05/14 09:14:28;;;;;;;10.80;7.03;;;;;;;17.81;64.88;96475.69;2084027;28;20231;-57
2023/05/14 09:15:31;;;;;;;9.57;7.60;;;;;;;17.85;64.26;96484.22;2081584;28;20193;-57
2023/05/14 09:16:35;;;;;;;11.43;7.60;;;;;;;17.11;64.06;96477.41;2083800;28;20300;-61
2023/05/14 09:17:37;;;;;;;11.98;7.68;;;;;;;16.07;68.42;96484.72;2082962;28;20288;-57
2023/05/14 09:18:43;;;;;;;10.35;8.30;;;;;;;16.50;67.40;96480.84;2085467;28;20193;-57
2023/05/14 09:19:51;;;;;;;8.68;6.72;;;;;;;16.21;68.08;96472.38;2082717;28;20197;-57
2023/05/14 09:20:53;;;;;;;10.98;8.30;;;;;;;16.76;67.78;96478.13;2083275;28;20208;-57
2023/05/14 09:21:57;;;;;;;16.17;7.60;;;;;;;17.20;66.52;96487.25;2084552;28;20229;-57
2023/05/14 09:23:00;;;;;;;11.20;8.15;;;;;;;17.45;65.89;96478.34;2083282;28;20283;-57
2023/05/14 09:24:02;;;;;;;9.70;7.10;;;;;;;17.64;66.00;96479.63;2080164;28;20201;-57
2023/05/14 09:25:08;;;;;;;9.07;6.68;;;;;;;17.75;65.19;96447.97;2081360;28;20243;-58
2023/05/14 09:26:10;;;;;;;8.68;6.40;;;;;;;18.31;63.49;96471.91;2083083;28;20261;-57
2023/05/14 09:27:19;;;;;;;7.30;5.75;;;;;;;17.68;62.75;96467.03;2082783;28;20221;-57
2023/05/14 09:28:21;;;;;;;7.85;5.72;;;;;;;17.91;64.68;96471.38;2082115;28;20224;-57
2023/05/14 09:29:25;;;;;;;8.55;5.68;;;;;;;17.99;62.61;96473.47;2082711;28;20228;-58
2023/05/14 09:30:26;;;;;;;8.50;6.60;;;;;;;17.96;63.62;96473.69;2083711;28;20261;-57
2023/05/14 09:31:32;;;;;;;9.75;6.35;;;;;;;18.17;63.48;96465.06;2081751;28;20296;-57
2023/05/14 09:32:39;;;;;;;10.05;5.88;;;;;;;18.16;61.66;96471.31;2081861;28;20205;-58
2023/05/14 09:33:40;;;;;;;8.50;5.75;;;;;;;16.76;63.48;96468.44;2095958;28;20921;-57
2023/05/14 09:34:42;;;;;;;7.88;6.20;;;;;;;17.03;65.38;96474.50;2095932;28;20281;-57
2023/05/14 09:35:43;;;;;;;7.60;5.80;;;;;;;17.11;64.97;96459.75;2082439;28;20201;-57
2023/05/14 09:36:45;;;;;;;8.98;6.43;;;;;;;17.39;65.13;96457.69;2081920;28;20205;-57
2023/05/14 09:37:49;;;;;;;7.10;4.97;;;;;;;17.78;62.20;96466.19;2082875;28;20244;-57
2023/05/14 09:38:50;;;;;;;7.07;4.63;;;;;;;18.06;60.87;96469.38;2082912;28;20815;-57
2023/05/14 09:39:52;;;;;;;6.00;3.90;;;;;;;17.71;61.77;96458.88;2099696;28;20199;-57
2023/05/14 09:40:53;;;;;;;9.02;5.95;;;;;;;17.41;61.59;96462.88;2100917;28;20556;-57
2023/05/14 09:41:55;;;;;;;8.90;5.95;;;;;;;17.04;62.67;96468.25;2085115;28;20755;-57
2023/05/14 09:42:57;;;;;;;10.05;6.28;;;;;;;17.10;63.49;96457.25;2080272;28;20205;-58
2023/05/14 09:44:00;;;;;;;8.73;5.38;;;;;;;17.67;63.95;96466.16;2080046;28;20201;-57
2023/05/14 09:45:04;;;;;;;8.45;5.45;;;;;;;18.07;62.82;96465.78;2083092;28;20840;-57
2023/05/14 09:46:05;;;;;;;7.55;5.25;;;;;;;18.34;61.40;96467.22;2084058;28;20280;-57
2023/05/14 09:47:07;;;;;;;6.93;5.65;;;;;;;18.43;61.71;96461.19;2085135;28;20212;-57
2023/05/14 09:48:09;;;;;;;10.23;5.90;;;;;;;18.23;61.70;96462.78;2083676;28;20197;-57
2023/05/14 09:49:10;;;;;;;11.18;6.07;;;;;;;18.65;61.53;96463.94;2082664;28;20219;-57
2023/05/14 09:50:12;;;;;;;8.35;5.93;;;;;;;18.99;60.18;96459.44;2085019;28;20196;-58
2023/05/14 09:51:14;;;;;;;89.03;57.92;;;;;;;19.06;60.54;96459.78;2084576;28;20214;-58
2023/05/14 09:52:18;;;;;;;59.80;36.42;;;;;;;18.95;60.08;96465.13;2083034;28;20248;-58
2023/05/14 09:53:19;;;;;;;16.17;10.57;;;;;;;19.04;60.21;96459.06;2084104;28;20201;-58
2023/05/14 09:54:21;;;;;;;13.32;6.38;;;;;;;18.87;60.08;96461.25;2083805;28;20200;-58
2023/05/14 09:55:22;;;;;;;8.50;6.18;;;;;;;19.10;59.83;96418.88;2084070;28;20224;-59
2023/05/14 09:56:24;;;;;;;10.18;4.95;;;;;;;19.42;59.92;96450.56;2085472;28;20691;-58
2023/05/14 09:57:26;;;;;;;10.30;5.55;;;;;;;19.60;58.60;96447.34;2082845;28;20227;-58
2023/05/14 09:58:28;;;;;;;5.63;4.32;;;;;;;19.89;58.34;96452.84;2083475;28;20208;-58
2023/05/14 09:59:29;;;;;;;6.78;4.75;;;;;;;19.85;56.91;96455.91;2083856;28;20231;-58
2023/05/14 10:00:32;;;;;;;8.05;4.90;;;;;;;19.42;57.45;96450.56;2082026;28;20227;-58
2023/05/14 10:01:34;;;;;;;7.20;4.78;;;;;;;19.55;57.27;96452.19;2081310;28;20201;-58
2023/05/14 10:02:37;;;;;;;6.97;4.93;;;;;;;19.98;57.08;96461.00;2079958;28;20197;-58
2023/05/14 10:03:39;;;;;;;7.07;4.95;;;;;;;20.03;53.89;96450.84;2080732;28;20197;-58
2023/05/14 10:04:42;;;;;;;7.20;5.15;;;;;;;19.35;56.48;96449.44;2082599;28;20196;-58
2023/05/14 10:05:45;;;;;;;6.75;5.47;;;;;;;19.46;57.85;96453.81;2083751;28;20240;-58
2023/05/14 10:06:50;;;;;;;11.70;5.70;;;;;;;19.55;57.27;96447.75;2082465;28;21137;-58
2023/05/14 10:07:53;;;;;;;7.68;5.53;;;;;;;19.79;56.61;96454.56;2082319;28;20289;-58
2023/05/14 10:09:00;;;;;;;8.90;5.75;;;;;;;20.11;55.90;96451.00;2083519;28;20217;-58
2023/05/14 10:10:06;;;;;;;6.10;4.82;;;;;;;20.27;55.83;96455.81;2083002;28;20200;-58
2023/05/14 10:11:12;;;;;;;7.72;5.40;;;;;;;20.42;57.44;96455.44;2083208;28;20205;-58
2023/05/14 10:12:18;;;;;;;7.88;5.72;;;;;;;20.53;57.17;96450.91;2083288;28;20227;-58
2023/05/14 10:13:23;;;;;;;9.38;5.65;;;;;;;20.65;56.87;96453.44;2082791;28;20869;-58
2023/05/14 10:14:36;;;;;;;6.13;4.85;;;;;;;19.97;57.04;96443.41;2080003;28;20662;-58
2023/05/14 10:15:49;;;;;;;6.53;5.47;;;;;;;20.32;57.11;96464.22;2083565;28;20192;-58
2023/05/14 10:16:52;;;;;;;7.80;5.35;;;;;;;20.01;56.68;96455.41;2081209;28;20628;-58
2023/05/14 10:17:57;;;;;;;9.32;6.22;;;;;;;20.21;57.23;96457.22;2082903;28;20283;-58
2023/05/14 10:19:08;;;;;;;7.10;5.45;;;;;;;20.27;56.75;96455.00;2083699;28;20204;-58
2023/05/14 10:20:15;;;;;;;9.27;4.95;;;;;;;20.62;56.67;96459.00;2079687;28;20246;-58
2023/05/14 10:21:20;;;;;;;6.88;5.18;;;;;;;20.81;55.05;96460.88;2081300;28;20647;-58
2023/05/14 10:22:24;;;;;;;10.13;6.60;;;;;;;20.71;56.23;96455.59;2081915;28;20578;-58
2023/05/14 10:23:26;;;;;;;8.40;5.60;;;;;;;21.08;56.50;96460.25;2083480;28;20222;-58
2023/05/14 10:24:28;;;;;;;7.47;5.47;;;;;;;21.35;55.17;96451.56;2079809;28;20208;-58
2023/05/14 10:25:30;;;;;;;8.40;6.13;;;;;;;21.02;55.46;96450.16;2081140;28;20225;-57
2023/05/14 10:26:38;;;;;;;9.05;5.93;;;;;;;20.59;54.82;96444.19;2082687;28;20192;-58
2023/05/14 10:27:41;;;;;;;8.93;5.18;;;;;;;20.37;55.86;96453.22;2081299;28;20267;-58
2023/05/14 10:28:43;;;;;;;7.47;5.75;;;;;;;20.66;55.38;96449.81;2079666;28;20193;-58
2023/05/14 10:29:52;;;;;;;8.35;6.07;;;;;;;19.74;55.01;96444.41;2083473;28;20201;-58
2023/05/14 10:30:54;;;;;;;14.05;6.72;;;;;;;18.89;58.25;96455.81;2079835;28;20354;-58
2023/05/14 10:31:55;;;;;;;7.50;5.78;;;;;;;19.62;57.44;96456.03;2080054;28;20221;-58
2023/05/14 10:33:17;;;;;;;8.63;6.05;;;;;;;19.77;57.00;96458.31;2083749;28;20240;-58
2023/05/14 10:34:36;;;;;;;9.45;5.90;;;;;;;20.00;56.67;96456.41;2082865;28;20233;-58
2023/05/14 10:35:54;;;;;;;6.75;5.20;;;;;;;19.98;56.85;96445.94;2084012;28;20201;-58
2023/05/14 10:37:01;;;;;;;7.97;5.40;;;;;;;20.07;57.58;96449.59;2083461;28;20235;-58
2023/05/14 10:38:07;;;;;;;9.90;5.97;;;;;;;19.87;56.62;96446.88;2083770;28;20292;-58
2023/05/14 10:39:08;;;;;;;8.50;6.20;;;;;;;19.71;57.23;96449.09;2082269;28;20235;-58
2023/05/14 10:40:11;;;;;;;9.65;6.50;;;;;;;20.05;57.16;96447.09;2082465;28;20197;-58
2023/05/14 10:41:20;;;;;;;17.17;6.70;;;;;;;19.52;57.72;96447.19;2083404;28;20212;-58
2023/05/14 10:42:32;;;;;;;9.43;5.78;;;;;;;19.75;56.67;96443.41;2085047;28;20770;-58
2023/05/14 10:43:36;;;;;;;8.40;6.00;;;;;;;19.79;56.98;96448.44;2081455;28;20601;-58
2023/05/14 10:44:45;;;;;;;7.35;5.90;;;;;;;20.03;57.27;96448.19;2079529;28;20232;-58
2023/05/14 10:45:47;;;;;;;10.90;5.88;;;;;;;19.84;58.00;96443.63;2083418;28;20200;-58
2023/05/14 10:46:48;;;;;;;10.80;5.43;;;;;;;20.20;57.84;96438.75;2081045;28;20217;-58
2023/05/14 10:47:50;;;;;;;6.20;4.72;;;;;;;20.55;57.02;96440.97;2084588;28;20555;-58
2023/05/14 10:48:52;;;;;;;9.40;5.65;;;;;;;21.28;55.66;96444.31;2081996;28;20558;-59
2023/05/14 10:49:59;;;;;;;9.15;5.40;;;;;;;21.60;53.86;96446.69;2082676;28;20211;-58
2023/05/14 10:51:04;;;;;;;6.05;4.43;;;;;;;21.70;54.48;96430.75;2079864;28;20603;-58
2023/05/14 10:52:08;;;;;;;9.80;5.70;;;;;;;22.11;53.57;96431.31;2080004;28;20227;-58
2023/05/14 10:53:12;;;;;;;12.00;6.50;;;;;;;22.11;51.67;96433.97;2081230;28;20232;-58
2023/05/14 10:54:15;;;;;;;7.55;5.68;;;;;;;21.21;51.39;96433.41;2081870;28;20574;-58
2023/05/14 10:55:17;;;;;;;8.93;4.95;;;;;;;21.61;51.91;96431.59;2082359;28;20197;-58
2023/05/14 10:56:18;;;;;;;5.45;4.28;;;;;;;22.07;52.01;96431.72;2084319;28;20212;-59
2023/05/14 10:57:22;;;;;;;6.03;4.53;;;;;;;22.24;51.97;96432.81;2082240;28;20220;-58
2023/05/14 10:58:23;;;;;;;7.00;4.80;;;;;;;22.27;51.34;96430.69;2082819;28;20242;-58
2023/05/14 10:59:28;;;;;;;5.72;3.78;;;;;;;22.18;48.61;96426.22;2080887;28;20639;-58
2023/05/14 11:00:33;;;;;;;5.88;4.10;;;;;;;21.40;49.63;96421.94;2083082;28;20667;-58
2023/05/14 11:01:34;;;;;;;7.78;3.63;;;;;;;21.37;51.12;96425.72;2080734;28;20197;-58
2023/05/14 11:02:40;;;;;;;4.68;3.55;;;;;;;21.48;50.11;96422.09;2082959;28;20204;-58
2023/05/14 11:03:44;;;;;;;6.43;3.97;;;;;;;21.48;51.23;96423.88;2081529;28;20742;-58
2023/05/14 11:05:02;;;;;;;8.27;4.63;;;;;;;21.99;51.30;96424.47;2087008;28;20283;-58
2023/05/14 11:06:05;;;;;;;5.15;4.43;;;;;;;22.50;49.81;96409.88;2090851;28;20200;-58
2023/05/14 11:07:07;;;;;;;5.85;3.63;;;;;;;22.13;48.91;96415.19;2086571;28;20231;-58
2023/05/14 11:08:10;;;;;;;5.55;4.25;;;;;;;22.10;48.35;96413.66;2079708;28;20821;-58
2023/05/14 11:09:12;;;;;;;6.60;4.40;;;;;;;21.26;51.21;96411.75;2082067;28;20203;-58
2023/05/14 11:10:15;;;;;;;7.55;3.58;;;;;;;21.40;48.85;96410.50;2081977;28;20189;-58
2023/05/14 11:11:17;;;;;;;10.35;3.72;;;;;;;21.71;50.47;96405.81;2082951;28;20193;-59
2023/05/14 11:12:20;;;;;;;4.88;3.03;;;;;;;22.61;49.49;96406.19;2082307;28;20224;-58
2023/05/14 11:13:21;;;;;;;3.70;2.78;;;;;;;22.88;48.20;96412.44;2082542;28;20196;-58
2023/05/14 11:14:23;;;;;;;5.97;2.88;;;;;;;23.09;47.31;96400.66;2079160;28;20820;-58
2023/05/14 11:15:25;;;;;;;3.85;2.85;;;;;;;23.09;47.95;96405.97;2080881;28;20250;-59
2023/05/14 11:16:29;;;;;;;5.10;3.50;;;;;;;22.31;48.18;96405.47;2083129;28;20196;-58
2023/05/14 11:17:31;;;;;;;7.63;3.40;;;;;;;22.66;48.64;96406.56;2079176;28;20221;-58
2023/05/14 11:18:37;;;;;;;4.30;2.90;;;;;;;22.20;47.89;96403.00;2081117;28;20197;-58
2023/05/14 11:19:42;;;;;;;6.47;3.38;;;;;;;22.26;47.72;96404.22;2082994;28;20288;-58
2023/05/14 11:20:43;;;;;;;4.30;3.50;;;;;;;22.82;47.32;96395.25;2080824;28;20200;-58
2023/05/14 11:21:45;;;;;;;5.38;3.03;;;;;;;22.87;47.67;96399.25;2078717;28;20201;-59
2023/05/14 11:22:48;;;;;;;6.15;3.75;;;;;;;20.70;49.71;96401.66;2080583;28;20200;-59
2023/05/14 11:23:49;;;;;;;5.28;3.53;;;;;;;21.04;50.28;96398.63;2079615;28;20208;-58
2023/05/14 11:24:51;;;;;;;4.25;2.60;;;;;;;21.49;49.71;96399.84;2082341;28;20817;-58
2023/05/14 11:25:53;;;;;;;10.45;3.67;;;;;;;20.14;50.69;96396.91;2083728;28;20207;-58
2023/05/14 11:26:55;;;;;;;6.07;3.63;;;;;;;21.17;49.85;96406.31;2081892;28;20247;-58
2023/05/14 11:27:57;;;;;;;4.10;2.92;;;;;;;21.71;49.70;96397.03;2079549;28;20251;-58
2023/05/14 11:28:58;;;;;;;5.28;3.40;;;;;;;22.17;48.37;96408.63;2083642;28;20200;-58
2023/05/14 11:30:01;;;;;;;5.25;3.35;;;;;;;23.02;48.52;96411.09;2081824;28;20228;-58
2023/05/14 11:31:04;;;;;;;6.57;4.07;;;;;;;23.11;49.69;96399.50;2082481;28;20943;-58
2023/05/14 11:32:06;;;;;;;8.45;5.20;;;;;;;22.54;51.58;96399.78;2081653;28;20400;-59
2023/05/14 11:33:08;;;;;;;5.65;5.00;;;;;;;21.56;52.61;96394.84;2084086;28;20315;-58
2023/05/14 11:34:09;;;;;;;6.03;5.00;;;;;;;21.45;54.62;96397.63;2083358;28;20205;-59
2023/05/14 11:35:11;;;;;;;8.65;4.65;;;;;;;21.63;54.95;96395.91;2082554;28;20189;-58
2023/05/14 11:36:13;;;;;;;5.18;4.47;;;;;;;21.53;54.82;96393.28;2083357;28;20220;-58
2023/05/14 11:37:16;;;;;;;8.10;4.40;;;;;;;21.59;54.27;96397.19;2078537;28;20228;-58
2023/05/14 11:38:19;;;;;;;6.63;4.80;;;;;;;21.41;54.43;96401.53;2084954;28;20640;-58
2023/05/14 11:39:20;;;;;;;6.80;4.40;;;;;;;20.94;54.89;96403.09;2083107;28;20197;-58
2023/05/14 11:40:22;;;;;;;8.57;4.45;;;;;;;20.46;57.16;96404.66;2083213;28;20742;-58
2023/05/14 11:41:25;;;;;;;8.15;4.68;;;;;;;20.70;56.97;96401.66;2082889;28;20222;-58
2023/05/14 11:42:26;;;;;;;7.10;4.22;;;;;;;20.53;57.12;96405.81;2080912;28;20225;-58
2023/05/14 11:43:28;;;;;;;7.78;4.70;;;;;;;20.21;57.20;96392.72;2081204;28;20784;-58
2023/05/14 11:44:31;;;;;;;7.38;4.90;;;;;;;20.06;57.36;96382.50;2082160;28;20539;-57
2023/05/14 11:45:32;;;;;;;7.38;4.78;;;;;;;19.57;59.08;96403.44;2079305;28;20529;-58
2023/05/14 11:46:34;;;;;;;10.25;6.32;;;;;;;19.57;58.25;96399.97;2083704;28;20212;-58
2023/05/14 11:47:36;;;;;;;7.22;5.38;;;;;;;19.36;59.05;96400.81;2083042;28;20793;-57
2023/05/14 11:48:37;;;;;;;40.08;28.92;;;;;;;19.18;59.95;96397.06;2081020;28;20257;-58
2023/05/14 11:49:39;;;;;;;27.95;18.52;;;;;;;19.74;58.92;96401.16;2080336;28;20667;-58
2023/05/14 11:50:44;;;;;;;21.75;15.00;;;;;;;19.35;59.15;96401.78;2081931;28;20295;-57
2023/05/14 11:51:46;;;;;;;21.23;9.45;;;;;;;19.33;59.98;96401.06;2081642;28;20328;-57
2023/05/14 11:52:49;;;;;;;9.02;6.47;;;;;;;19.22;59.96;96399.31;2073557;28;20197;-58
2023/05/14 11:53:52;;;;;;;6.55;4.90;;;;;;;18.88;60.16;96395.94;2080772;28;20646;-58
2023/05/14 11:54:54;;;;;;;15.60;5.55;;;;;;;18.72;60.59;96396.38;2082047;28;20192;-58
2023/05/14 11:55:58;;;;;;;6.68;5.18;;;;;;;18.59;61.02;96397.38;2084982;28;20295;-58
2023/05/14 11:57:09;;;;;;;10.70;6.43;;;;;;;18.47;61.35;96402.81;2082471;28;20278;-58
2023/05/14 11:58:11;;;;;;;9.70;5.40;;;;;;;18.49;61.69;96398.25;2081806;28;20196;-58
2023/05/14 11:59:12;;;;;;;12.07;5.53;;;;;;;18.24;63.18;96402.84;2081192;28;20284;-58
2023/05/14 12:00:20;;;;;;;9.77;5.57;;;;;;;17.70;62.75;96389.38;2081619;28;20678;-57
2023/05/14 12:01:22;;;;;;;8.57;5.50;;;;;;;18.11;62.49;96400.34;2081444;28;20193;-57
2023/05/14 12:02:27;;;;;;;7.00;4.20;;;;;;;17.74;63.40;96400.56;2081781;28;20271;-57
2023/05/14 12:03:29;;;;;;;11.23;5.90;;;;;;;17.47;63.53;96399.06;2084075;28;20197;-60
2023/05/14 12:04:31;;;;;;;8.05;5.90;;;;;;;17.14;64.74;96398.88;2081455;28;20208;-57
2023/05/14 12:05:36;;;;;;;6.00;4.65;;;;;;;17.67;64.37;96388.78;2081884;28;20703;-57
2023/05/14 12:06:38;;;;;;;10.65;5.07;;;;;;;17.81;63.76;96396.44;2082976;28;20625;-57
2023/05/14 12:07:43;;;;;;;8.15;5.82;;;;;;;17.92;64.12;96403.56;2082256;28;20208;-57
2023/05/14 12:08:47;;;;;;;9.25;5.25;;;;;;;18.03;63.71;96390.38;2083470;28;20211;-57